• Join FlightAware (Why Join?)
  • Login
  • US Flag 
11:51PM EDT


 

Airport Tracker/Info


-or-


 

Live Flight TrackerFlight Track Log ✈ AAL832 ✈ 10-Aug-2013 ✈ KLAX - KORD

Flight Track Log - Related Links

Times and Time Zones

All times are in EDT time to prevent confusion due to time zone crossing. See the AAL832 flight status page for this flight to view local times or setup timezone preferences in your user account.

Time Position Orientation Groundspeed Altitude Reporting Facility
EDT Latitude Longitude Course Direction KTS MPH feet Rate Location/Type
12:51PM 33.9133 -118.4625 90° East 215 247 1,900  Level Los Angeles Center
12:52PM 33.8515 -118.6538 192° South  Level FlightAware Approximate
12:52PM 33.8403 -118.4819 192° South 251 289 4,300  Level Los Angeles Center
12:53PM 33.7450 -118.5938 134° Southeast  Level FlightAware Approximate
12:53PM 33.7706 -118.5022 194° South 285 328 6,600  Level Los Angeles Center
12:54PM 33.6744 -118.4632 101° East  Level FlightAware Approximate
12:54PM 33.6867 -118.4792 167° South 289 333 9,800  Level Los Angeles Center
12:55PM 33.6333 -118.3138 90° East  Level FlightAware Approximate
12:55PM 33.6556 -118.3822 111° Southeast 313 360 11,200  Level Los Angeles Center
12:56PM 33.6333 -118.1524 90° East  Level FlightAware Approximate
12:56PM 33.6431 -118.2661 97° East 358 412 13,100  Level Los Angeles Center
12:57PM 33.6442 -118.1419 89° East 377 434 15,300 2,280 Climbing Los Angeles Center
12:58PM 33.6444 -117.9844 90° East 395 455 17,900 2,220 Climbing Los Angeles Center
12:59PM 33.6439 -117.8467 90° East 411 473 20,000 1,980 Climbing Los Angeles Center
01:00PM 33.6436 -117.7039 90° East 426 490 22,000 1,740 Climbing Los Angeles Center
01:01PM 33.6428 -117.5564 90° East 442 509 23,700 1,560 Climbing Los Angeles Center
01:02PM 33.6428 -117.4039 90° East 454 522 25,300 1,620 Climbing Los Angeles Center
01:03PM 33.6411 -117.2147 91° East 473 544 27,100 1,500 Climbing Los Angeles Center
01:04PM 33.6394 -117.0539 91° East 483 556 28,500 1,260 Climbing Los Angeles Center
01:05PM 33.6594 -116.8928 81° East 498 573 29,800 1,380 Climbing Los Angeles Center
01:06PM 33.6925 -116.7367 76° East 494 568 31,400 1,440 Climbing Los Angeles Center
01:07PM 33.7264 -116.5775 76° East 490 564 32,800 1,260 Climbing Los Angeles Center
01:08PM 33.7583 -116.4186 76° East 489 563 34,100 1,200 Climbing Los Angeles Center
01:09PM 33.7969 -116.2253 76° East 492 566 35,400 1,020 Climbing Los Angeles Center
01:10PM 33.8300 -116.0664 76° East 490 564 36,300 720 Climbing Los Angeles Center
01:11PM 33.8622 -115.9069 76° East 490 564 37,000 240 Climbing Los Angeles Center
01:13PM 33.8933 -115.7450 77° East 494 568 36,900 -60 Descending Los Angeles Center
01:14PM 33.9261 -115.5836 76° East 496 571 36,900  Level Los Angeles Center
01:15PM 33.9650 -115.3911 76° East 495 570 37,000  Climbing Los Angeles Center
01:16PM 34.0017 -115.1975 77° East 493 567 37,000  Level Los Angeles Center
01:17PM 34.0328 -115.0364 77° East 495 570 37,000  Level Los Angeles Center
01:18PM 34.0644 -114.8744 77° East 498 573 37,000  Level Los Angeles Center
01:19PM 34.0953 -114.7144 77° East 493 567 37,000  Level Los Angeles Center
01:20PM 34.1364 -114.5575 72° East 493 567 37,000 -60 Level Los Angeles Center
01:21PM 34.1800 -114.4014 71° East 491 565 36,900 -60 Descending Los Angeles Center
01:22PM 34.2333 -114.2178 71° East 485 558 36,900  Level Los Angeles Center
01:23PM 34.2761 -114.0631 71° East 485 558 37,000  Climbing Los Angeles Center
01:24PM 34.3192 -113.9075 71° East 488 562 37,000 -60 Level Los Angeles Center
01:25PM 34.3614 -113.7506 72° East 491 565 36,900  Descending Los Angeles Center
01:26PM 34.4133 -113.5608 72° East 492 566 37,000  Climbing Albuquerque Center
01:27PM 34.4569 -113.3997 72° East 487 560 37,000  Level Albuquerque Center
01:28PM 34.4983 -113.2478 72° East 482 555 37,000  Level Albuquerque Center
01:29PM 34.5383 -113.0961 72° East 479 551 37,000  Level Albuquerque Center
01:30PM 34.5800 -112.9431 72° East 482 555 37,000  Level Albuquerque Center
01:31PM 34.6211 -112.7894 72° East 482 555 37,000  Level Albuquerque Center
01:32PM 34.6697 -112.6031 72° East 486 559 37,000  Level Albuquerque Center
01:33PM 34.7103 -112.4497 72° East 485 558 37,000  Level Albuquerque Center
01:34PM 34.7450 -112.2958 75° East 481 554 37,000  Level Albuquerque Center
01:36PM 34.7786 -112.1425 75° East 477 549 37,000  Level Albuquerque Center
01:37PM 34.8136 -111.9903 74° East 473 544 37,000  Level Albuquerque Center
01:38PM 34.8558 -111.8056 74° East 476 548 37,000  Level Albuquerque Center
01:39PM 34.8867 -111.6678 75° East 476 548 37,000  Level Albuquerque Center
01:40PM 34.9217 -111.5117 75° East 476 548 37,000  Level Albuquerque Center
01:41PM 34.9558 -111.3556 75° East 477 549 37,000  Level Albuquerque Center
01:42PM 34.9975 -111.1644 75° East 483 556 37,000  Level Albuquerque Center
01:43PM 35.0325 -111.0039 75° East 488 562 37,000  Level Albuquerque Center
01:44PM 35.0694 -110.8389 75° East 484 557 37,000  Level Albuquerque Center
01:45PM 35.1033 -110.6872 75° East 483 556 37,000  Level Albuquerque Center
01:46PM 35.1414 -110.5092 75° East 485 558 37,000  Level Albuquerque Center
01:47PM 35.1742 -110.3539 75° East 490 564 37,000  Level Albuquerque Center
01:48PM 35.2128 -110.1719 75° East 494 568 37,000  Level Albuquerque Center
01:49PM 35.2450 -110.0158 76° East 494 568 37,000  Level Albuquerque Center
01:50PM 35.2833 -109.8322 76° East 498 573 37,000  Level Albuquerque Center
01:51PM 35.3156 -109.6731 76° East 501 577 37,000  Level Albuquerque Center
01:52PM 35.3539 -109.4867 76° East 506 582 37,000  Level Albuquerque Center
01:53PM 35.3856 -109.3242 77° East 510 587 37,000  Level Albuquerque Center
01:54PM 35.4181 -109.1611 76° East 515 593 37,000  Level Albuquerque Center
01:55PM 35.4561 -108.9731 76° East 513 590 37,000  Level Albuquerque Center
01:56PM 35.4936 -108.8128 74° East 515 593 37,000  Level Albuquerque Center
01:57PM 35.5611 -108.6344 65° Northeast 519 597 37,000  Level Albuquerque Center
01:58PM 35.6175 -108.4811 66° East 518 596 37,000  Level Albuquerque Center
01:59PM 35.6836 -108.3019 66° East 518 596 37,000  Level Albuquerque Center
02:00PM 35.7394 -108.1497 66° East 516 594 37,000  Level Albuquerque Center
02:01PM 35.7858 -107.9622 73° East 515 593 37,000  Level Albuquerque Center
02:02PM 35.8275 -107.8025 72° East 513 590 37,000  Level Albuquerque Center
02:03PM 35.8747 -107.6158 73° East 513 590 37,000  Level Albuquerque Center
02:04PM 35.9164 -107.4564 72° East 511 588 37,000  Level Albuquerque Center
02:05PM 35.9661 -107.2708 72° East 510 587 37,000  Level Albuquerque Center
02:06PM 36.0128 -107.1119 70° East 513 590 37,000  Level Albuquerque Center
02:07PM 36.0586 -106.9522 70° East 515 593 37,000  Level Albuquerque Center
02:08PM 36.1119 -106.7669 70° East 513 590 37,000  Level Albuquerque Center
02:10PM 36.1703 -106.6122 65° Northeast 518 596 37,000 -60 Level Albuquerque Center
02:11PM 36.2297 -106.4442 66° East 516 594 36,900  Descending Albuquerque Center
02:12PM 36.2867 -106.2819 66° East 513 590 37,000  Climbing Albuquerque Center
02:13PM 36.3461 -106.1189 66° East 514 592 36,900 -60 Descending Albuquerque Center
02:14PM 36.4036 -105.9556 66° East 514 592 36,900  Level Albuquerque Center
02:15PM 36.4708 -105.7586 67° East 514 592 37,000  Climbing Albuquerque Center
02:16PM 36.5281 -105.5947 66° East 515 593 36,900  Descending Albuquerque Center
02:17PM 36.5814 -105.4433 66° East 514 592 37,000  Climbing Albuquerque Center
02:18PM 36.6386 -105.2772 67° East 516 594 37,000  Level Albuquerque Center
02:19PM 36.7031 -105.0886 67° East 515 593 37,000  Level Albuquerque Center
02:20PM 36.7572 -104.9306 67° East 516 594 37,000  Level Albuquerque Center
02:21PM 36.8186 -104.7508 67° East 517 595 37,000  Level Albuquerque Center
02:22PM 36.8747 -104.5817 67° East 520 598 37,000  Level Albuquerque Center
02:22PM 36.9089 -104.4806 67° East 519 597 37,000  Level Denver Center
02:24PM 36.9603 -104.3236 68° East 514 592 37,000  Level Denver Center
02:25PM 37.0225 -104.1406 67° East 512 589 37,000  Level Denver Center
02:26PM 37.0744 -103.9819 68° East 518 596 37,000  Level Denver Center
02:27PM 37.1356 -103.7964 68° East 519 597 37,000  Level Denver Center
02:28PM 37.1878 -103.6369 68° East 520 598 37,000  Level Denver Center
02:29PM 37.2494 -103.4497 67° East 523 602 37,000  Level Denver Center
02:30PM 37.3017 -103.2878 68° East 525 604 37,000  Level Denver Center
02:31PM 37.3617 -103.0972 68° East 527 606 37,000  Level Denver Center
02:32PM 37.4144 -102.9339 68° East 529 609 37,000  Level Denver Center
02:33PM 37.4756 -102.7439 68° East 527 606 37,000  Level Denver Center
02:34PM 37.5258 -102.5800 69° East 526 605 37,000  Level Denver Center
02:35PM 37.5889 -102.3844 68° East 524 603 37,000  Level Denver Center
02:36PM 37.6317 -102.2472 68° East 526 605 37,000  Level Denver Center
02:37PM 37.6906 -102.0556 69° East 526 605 37,000  Level Denver Center
02:38PM 37.7497 -101.8631 69° East 526 605 37,000  Level Denver Center
02:39PM 37.7992 -101.6997 69° East 520 598 37,000  Level Denver Center
02:40PM 37.8572 -101.5086 69° East 520 598 37,000  Level Denver Center
02:41PM 37.9072 -101.3436 69° East 520 598 37,000  Level Denver Center
02:42PM 37.9653 -101.1511 69° East 521 600 37,000  Level Denver Center
02:43PM 38.0150 -100.9858 69° East 520 598 37,000  Level Denver Center
02:44PM 38.0636 -100.8206 69° East 518 596 37,000  Level Denver Center
02:45PM 38.1200 -100.6261 70° East 522 601 37,000  Level Denver Center
02:46PM 38.1683 -100.4625 69° East 518 596 37,000  Level Denver Center
02:47PM 38.2228 -100.2681 70° East 521 600 37,000  Level Denver Center
02:48PM 38.2706 -100.1025 70° East 521 600 37,000  Level Denver Center
02:49PM 38.3183 -99.9375 70° East 519 597 37,000  Level Denver Center
02:51PM 38.3908 -99.6903 69° East 520 598 37,000  Level Kansas City Center
02:52PM 38.4358 -99.5244 71° East 519 597 37,000  Level Kansas City Center
02:53PM 38.4850 -99.3547 70° East 519 597 37,000  Level Kansas City Center
02:54PM 38.5325 -99.1811 71° East 518 596 37,000  Level Kansas City Center
02:55PM 38.5806 -99.0067 71° East 519 597 37,000  Level Kansas City Center
02:56PM 38.6283 -98.8314 71° East 520 598 37,000  Level Kansas City Center
02:57PM 38.6775 -98.6567 70° East 520 598 37,000  Level Kansas City Center
02:58PM 38.7353 -98.4467 71° East 519 597 37,000  Level Kansas City Center
02:59PM 38.7814 -98.2714 71° East 517 595 37,000  Level Kansas City Center
03:00PM 38.8278 -98.0953 71° East 519 597 37,000  Level Kansas City Center
03:01PM 38.8753 -97.9211 71° East 515 593 37,000  Level Kansas City Center
03:02PM 38.9267 -97.7317 71° East 516 594 37,000  Level Kansas City Center
03:03PM 38.9700 -97.5644 72° East 516 594 37,000  Level Kansas City Center
03:04PM 39.0183 -97.3681 72° East 516 594 37,000  Level Kansas City Center
03:05PM 39.0622 -97.1997 71° East 520 598 37,000  Level Kansas City Center
03:06PM 39.1158 -97.0022 71° East 523 602 37,000  Level Kansas City Center
03:07PM 39.1589 -96.8328 72° East 521 600 37,000  Level Kansas City Center
03:08PM 39.2011 -96.6619 72° East 522 601 37,000  Level Kansas City Center
03:09PM 39.2486 -96.4606 73° East 525 604 37,000  Level Kansas City Center
03:10PM 39.2939 -96.2931 71° East 522 601 37,000  Level Kansas City Center
03:11PM 39.3403 -96.0894 74° East 524 603 37,000  Level Kansas City Center
03:12PM 39.3825 -95.9194 72° East 517 595 37,000  Level Kansas City Center
03:13PM 39.4311 -95.7194 72° East 518 596 37,000  Level Kansas City Center
03:14PM 39.4728 -95.5472 73° East 520 598 37,000  Level Kansas City Center
03:15PM 39.5194 -95.3472 73° East 516 594 37,000  Level Kansas City Center
03:16PM 39.5611 -95.1719 73° East 521 600 37,000  Level Kansas City Center
03:17PM 39.6014 -94.9989 73° East 520 598 37,000  Level Kansas City Center
03:18PM 39.6486 -94.7969 73° East 521 600 37,000  Level Kansas City Center
03:19PM 39.6889 -94.6239 73° East 522 601 37,000  Level Kansas City Center
03:21PM 39.7275 -94.4494 74° East 524 603 37,000  Level Kansas City Center
03:22PM 39.7742 -94.2458 73° East 526 605 37,000  Level Kansas City Center
03:23PM 39.8164 -94.0561 74° East 525 604 37,000  Level Kansas City Center
03:24PM 39.8564 -93.8736 74° East 526 605 37,000  Level Kansas City Center
03:25PM 39.8958 -93.6950 74° East 521 600 37,000  Level Kansas City Center
03:26PM 39.9353 -93.5161 74° East 519 597 37,000  Level Kansas City Center
03:27PM 39.9739 -93.3353 74° East 521 600 37,000  Level Kansas City Center
03:28PM 40.0217 -93.1192 74° East 522 601 37,000  Level Kansas City Center
03:29PM 40.0603 -92.9378 74° East 524 603 37,000  Level Kansas City Center
03:30PM 40.0969 -92.7594 75° East 528 608 37,000  Level Kansas City Center
03:31PM 40.1431 -92.5525 74° East 531 611 37,000  Level Kansas City Center
03:32PM 40.2089 -92.3886 62° Northeast 529 609 37,000  Level Kansas City Center
03:33PM 40.2747 -92.2039 65° Northeast 531 611 37,000 -300 Level Kansas City Center
03:34PM 40.3356 -92.0328 65° Northeast 526 605 36,400 -780 Descending Kansas City Center
03:35PM 40.3958 -91.8625 65° Northeast 523 602 35,400 -1,200 Descending Kansas City Center
03:36PM 40.4669 -91.6592 65° Northeast 518 596 34,000 -1,200 Descending Kansas City Center
03:37PM 40.5222 -91.4925 66° East 508 585 33,000 -540 Descending Kansas City Center
03:38PM 40.5792 -91.3272 66° East 503 579 33,000  Level Kansas City Center
03:39PM 40.6417 -91.1483 65° Northeast 501 577 33,000 -300 Level Kansas City Center
03:40PM 40.6983 -90.9819 66° East 498 573 32,400 -900 Descending Kansas City Center
03:41PM 40.7561 -90.8150 65° Northeast 499 574 31,200 -1,140 Descending Kansas City Center
03:42PM 40.8114 -90.6483 66° East 497 572 30,100 -1,080 Descending Kansas City Center
03:43PM 40.8678 -90.4825 66° East 494 568 29,000 -1,020 Descending Kansas City Center
03:44PM 40.9236 -90.3128 66° East 498 573 28,100 -960 Descending Kansas City Center
03:45PM 40.9894 -90.1147 66° East 502 578 26,900 -1,080 Descending Chicago Center
03:46PM 41.0472 -89.9361 67° East 502 578 25,800 -1,260 Descending Chicago Center
03:47PM 41.1039 -89.7642 66° East 503 579 24,400 -1,980 Descending Chicago Center
03:49PM 41.1686 -89.5656 67° East 488 562 21,800 -2,400 Descending Chicago Center
03:50PM 41.2311 -89.4142 61° Northeast 470 541 19,500 -2,100 Descending Chicago Center
03:51PM 41.2894 -89.2697 62° Northeast 448 516 17,500 -2,160 Descending Chicago Center
03:52PM 41.3478 -89.1192 63° Northeast 423 487 15,100 -2,220 Descending Chicago Center
03:53PM 41.4014 -88.9861 62° Northeast 414 476 13,000 -1,920 Descending Chicago Center
03:54PM 41.4525 -88.8583 62° Northeast 395 455 11,200 -1,020 Descending Chicago Center
03:55PM 41.5022 -88.7336 62° Northeast 383 441 11,000 -120 Descending Chicago Center
03:56PM 41.5425 -88.6300 63° Northeast 322 371 11,000 -120 Level Chicago Center
03:57PM 41.5817 -88.5325 62° Northeast 302 348 10,800 -1,020 Descending Chicago Center
03:58PM 41.6228 -88.4075 66° East 306 352 9,000 -1,320 Descending Chicago Center
03:59PM 41.6550 -88.3053 67° East 300 345 8,100 -840 Descending Chicago Center
04:00PM 41.6900 -88.2094 64° Northeast 289 333 7,300 -420 Descending Chicago Center
04:01PM 41.7411 -88.1489 41° Northeast 243 280 7,300 -720 Level Chicago Center
04:02PM 41.7836 -88.1014 40° Northeast 208 239 5,900 -1,500 Descending Chicago Center
04:03PM 41.8225 -88.0547 42° Northeast 198 228 4,200 -1,500 Descending Chicago Center
04:04PM 41.8672 -88.0017 41° Northeast 187 215 2,900 -1,200 Descending Chicago Center
04:05PM 41.8833 -87.9833 40° Northeast 169 194 2,400 -900 Descending Chicago TRACON
04:06PM 41.9167 -87.9500 37° Northeast 150 173 1,600 -840 Descending Chicago TRACON
04:06PM 41.9500 -87.9167 37° Northeast 149 171 900 -780 Descending Chicago TRACON